createdAt,value
2019-03-24T00:01:40.702Z,10.75
2019-03-24T00:04:05.259Z,11.67
2019-03-24T00:06:37.026Z,11.33
2019-03-24T00:09:09.059Z,11.60
2019-03-24T00:11:40.864Z,12.20
2019-03-24T00:14:12.628Z,10.93
2019-03-24T00:16:44.400Z,10.70
2019-03-24T00:19:16.165Z,12.00
2019-03-24T00:21:47.871Z,13.98
2019-03-24T00:24:19.630Z,10.60
2019-03-24T00:26:51.419Z,11.00
2019-03-24T00:29:23.127Z,10.53
2019-03-24T00:31:54.923Z,10.83
2019-03-24T00:34:26.662Z,10.13
2019-03-24T00:36:58.548Z,10.53
2019-03-24T00:39:30.213Z,10.13
2019-03-24T00:42:01.983Z,10.97
2019-03-24T00:44:33.718Z,10.83
2019-03-24T00:47:05.601Z,9.97
2019-03-24T00:49:37.369Z,9.53
2019-03-24T00:52:09.148Z,10.23
2019-03-24T00:54:40.961Z,9.67
2019-03-24T00:57:12.811Z,11.13
2019-03-24T00:59:44.597Z,9.73
2019-03-24T01:02:16.293Z,9.30
2019-03-24T01:04:48.070Z,9.43
2019-03-24T01:07:19.814Z,10.15
2019-03-24T01:09:51.483Z,8.40
2019-03-24T01:12:23.231Z,8.60
2019-03-24T01:14:54.924Z,9.57
2019-03-24T01:17:26.654Z,10.27
2019-03-24T01:19:58.364Z,9.17
2019-03-24T01:22:30.069Z,8.20
2019-03-24T01:25:01.766Z,9.03
2019-03-24T01:27:33.522Z,10.53
2019-03-24T01:30:05.996Z,9.97
2019-03-24T01:32:37.687Z,9.77
2019-03-24T01:35:10.662Z,9.73
2019-03-24T01:37:42.387Z,9.93
2019-03-24T01:40:14.092Z,8.60
2019-03-24T01:42:45.831Z,9.27
2019-03-24T01:45:17.591Z,9.73
2019-03-24T01:47:49.488Z,8.87
2019-03-24T01:50:21.172Z,8.63
2019-03-24T01:52:52.907Z,7.90
2019-03-24T01:55:24.603Z,8.50
2019-03-24T06:14:04.641Z,6.77
2019-03-24T06:16:38.003Z,7.33
2019-03-24T06:19:09.791Z,6.77
2019-03-24T06:21:41.569Z,7.37
2019-03-24T06:24:13.296Z,27.47
2019-03-24T06:26:45.070Z,13.17
2019-03-24T06:29:17.079Z,8.07
2019-03-24T06:31:48.910Z,6.80
2019-03-24T06:34:20.846Z,7.67
2019-03-24T06:36:52.584Z,8.23
2019-03-24T06:39:24.354Z,6.20
2019-03-24T06:41:56.081Z,7.30
2019-03-24T06:44:27.762Z,6.80
2019-03-24T06:46:59.537Z,7.10
2019-03-24T06:49:31.272Z,7.80
2019-03-24T06:52:02.953Z,7.17
2019-03-24T06:54:34.676Z,7.57
2019-03-24T06:57:06.596Z,7.27
2019-03-24T06:59:38.280Z,7.00
2019-03-24T07:02:10.180Z,7.27
2019-03-24T07:04:42.315Z,12.90
2019-03-24T07:07:14.122Z,9.20
2019-03-24T07:09:45.931Z,7.07
2019-03-24T07:12:17.686Z,7.23
2019-03-24T07:14:49.468Z,7.03
2019-03-24T07:17:21.362Z,7.33
2019-03-24T07:19:53.099Z,7.33
2019-03-24T07:22:24.839Z,6.77
2019-03-24T07:24:56.723Z,7.20
2019-03-24T07:27:28.565Z,7.83
2019-03-24T07:30:00.666Z,7.03
2019-03-24T07:32:32.592Z,7.47
2019-03-24T07:35:04.484Z,6.90
2019-03-24T07:37:36.291Z,6.70
2019-03-24T07:40:09.315Z,8.57
2019-03-24T07:42:41.109Z,6.77
2019-03-24T07:45:13.122Z,6.93
2019-03-24T07:47:44.918Z,7.33
2019-03-24T07:50:16.739Z,7.80
2019-03-24T07:52:48.599Z,7.77
2019-03-24T07:55:20.410Z,9.23
2019-03-24T07:57:52.168Z,11.07
2019-03-24T08:00:34.529Z,7.17
2019-03-24T08:03:06.474Z,8.70
2019-03-24T08:05:38.352Z,7.50
2019-03-24T08:08:10.243Z,7.60
2019-03-24T08:10:41.997Z,7.53
2019-03-24T08:13:13.760Z,7.67
2019-03-24T08:15:45.495Z,6.70
2019-03-24T08:18:17.291Z,6.57
2019-03-24T08:20:49.024Z,6.27
2019-03-24T08:23:20.889Z,5.83
2019-03-24T08:25:52.643Z,6.23
2019-03-24T08:28:24.459Z,6.53
2019-03-24T08:30:56.180Z,14.00
2019-03-24T08:33:27.939Z,6.77
2019-03-24T08:35:59.755Z,6.13
2019-03-24T08:38:31.489Z,6.07
2019-03-24T08:41:03.376Z,6.40
2019-03-24T08:43:36.396Z,5.90
2019-03-24T08:46:08.168Z,8.93
2019-03-24T08:48:41.023Z,20.87
2019-03-24T08:51:14.263Z,8.13
2019-03-24T08:53:46.118Z,6.33
2019-03-24T08:56:17.909Z,6.20
2019-03-24T08:58:49.657Z,5.40
2019-03-24T09:01:21.401Z,6.07
2019-03-24T09:03:53.475Z,5.67
2019-03-24T09:06:25.362Z,6.20
2019-03-24T09:08:57.143Z,6.20
2019-03-24T09:11:31.409Z,5.83
2019-03-24T09:14:03.094Z,33.13
2019-03-24T09:16:35.042Z,10.67
2019-03-24T09:19:06.754Z,6.50
2019-03-24T09:21:38.526Z,5.47
2019-03-24T09:24:10.329Z,6.07
2019-03-24T09:26:42.088Z,5.70
2019-03-24T09:29:13.902Z,6.67
2019-03-24T09:31:45.575Z,5.63
2019-03-24T09:34:17.382Z,5.77
2019-03-24T09:36:49.180Z,5.20
2019-03-24T09:39:20.955Z,5.23
2019-03-24T09:41:52.730Z,6.93
2019-03-24T09:44:24.469Z,7.30
2019-03-24T09:46:56.228Z,5.42
2019-03-24T09:49:27.962Z,5.43
2019-03-24T09:51:59.699Z,5.80
2019-03-24T09:54:31.382Z,5.40
2019-03-24T09:57:03.167Z,5.33
2019-03-24T09:59:35.173Z,5.40
2019-03-24T10:02:06.915Z,5.90
2019-03-24T10:04:38.743Z,5.00
2019-03-24T10:07:10.477Z,5.33
2019-03-24T10:09:42.190Z,7.30
2019-03-24T10:12:14.010Z,5.53
2019-03-24T10:14:45.748Z,5.37
2019-03-24T10:17:17.382Z,4.67
2019-03-24T10:19:49.170Z,3.87
2019-03-24T10:22:21.003Z,4.80
2019-03-24T10:24:52.854Z,4.95
2019-03-24T10:27:24.537Z,5.25
2019-03-24T12:29:39.353Z,3.25
2019-03-24T12:32:11.095Z,3.20
2019-03-24T12:34:43.123Z,3.35
2019-03-24T12:37:14.916Z,2.95
2019-03-24T12:39:47.746Z,3.60
2019-03-24T12:42:19.557Z,3.40
2019-03-24T12:44:51.520Z,4.20
2019-03-24T12:47:23.381Z,3.77
2019-03-24T12:50:09.090Z,3.80
2019-03-24T12:52:39.037Z,4.08
2019-03-24T12:55:10.903Z,4.20
2019-03-24T12:57:44.166Z,3.40
2019-03-24T13:00:31.912Z,3.80
2019-03-24T13:03:04.822Z,3.00
2019-03-24T13:05:36.868Z,3.90
2019-03-24T13:08:16.371Z,3.27
2019-03-24T13:10:48.498Z,3.20
2019-03-24T13:13:20.280Z,3.40
2019-03-24T13:15:52.059Z,3.95
2019-03-24T13:18:23.949Z,3.47
2019-03-24T13:20:55.877Z,3.40
2019-03-24T13:23:27.612Z,3.12
2019-03-24T13:25:59.407Z,3.02
2019-03-24T13:28:31.190Z,3.50
2019-03-24T13:31:03.014Z,3.45
2019-03-24T13:33:34.785Z,3.72
2019-03-24T13:36:10.856Z,3.50
2019-03-24T13:38:42.619Z,4.40
2019-03-24T13:41:14.476Z,3.35
2019-03-24T13:43:46.276Z,3.90
2019-03-24T13:46:18.059Z,3.80
2019-03-24T13:48:49.848Z,4.25
2019-03-24T13:51:22.593Z,4.45
2019-03-24T13:53:54.356Z,4.45
2019-03-24T13:56:26.106Z,4.05
2019-03-24T13:58:57.866Z,4.55
2019-03-24T14:01:29.692Z,4.15
2019-03-24T14:04:01.507Z,4.42
2019-03-24T14:06:34.967Z,4.35
2019-03-24T14:09:08.651Z,3.95
2019-03-24T14:11:40.561Z,3.98
2019-03-24T14:14:12.353Z,3.90
2019-03-24T14:16:46.504Z,4.25
2019-03-24T14:19:17.613Z,4.87
2019-03-24T14:21:50.304Z,4.75
2019-03-24T14:24:22.028Z,4.70
2019-03-24T14:26:53.790Z,4.33
2019-03-24T14:29:27.201Z,5.40
2019-03-24T14:31:59.172Z,4.67
2019-03-24T14:34:30.965Z,5.22
2019-03-24T14:37:03.406Z,5.03
2019-03-24T14:39:35.464Z,4.33
2019-03-24T14:42:07.477Z,4.80
2019-03-24T14:44:39.311Z,4.12
2019-03-24T14:47:11.165Z,3.90
2019-03-24T14:49:43.120Z,3.85
2019-03-24T14:52:14.899Z,4.03
2019-03-24T14:54:46.578Z,3.33
2019-03-24T14:57:18.341Z,3.80
2019-03-24T14:59:50.083Z,3.42
2019-03-24T15:02:21.864Z,3.30
2019-03-24T15:04:53.554Z,3.20
2019-03-24T15:07:25.340Z,3.35
2019-03-24T15:09:57.054Z,3.30
2019-03-24T15:12:28.815Z,3.30
2019-03-24T15:15:00.619Z,3.20
2019-03-24T15:17:32.360Z,2.80
2019-03-24T15:20:04.294Z,2.95
2019-03-24T15:22:36.018Z,3.62
2019-03-24T15:25:07.889Z,3.33
2019-03-24T15:27:39.692Z,3.12
2019-03-24T15:30:11.805Z,2.80
2019-03-24T15:32:43.940Z,2.80
2019-03-24T15:35:15.864Z,3.27
2019-03-24T15:37:52.314Z,3.15
2019-03-24T15:40:24.294Z,3.65
2019-03-24T15:42:56.074Z,3.25
2019-03-24T15:45:27.795Z,3.15
2019-03-24T15:47:59.574Z,3.47
2019-03-24T15:50:31.336Z,3.30
2019-03-24T15:53:03.196Z,3.30
2019-03-24T15:55:34.910Z,3.02
2019-03-24T15:58:06.678Z,3.17
2019-03-24T16:00:48.491Z,3.45
2019-03-24T16:03:20.250Z,3.40
2019-03-24T16:05:52.073Z,3.37
2019-03-24T16:08:23.802Z,3.17
2019-03-24T16:10:55.566Z,3.00
2019-03-24T16:13:28.245Z,3.15
2019-03-24T16:16:00.041Z,3.25
2019-03-24T16:18:31.890Z,3.52
2019-03-24T16:21:03.742Z,3.42
2019-03-24T16:23:35.475Z,3.25
2019-03-24T16:26:07.200Z,3.35
2019-03-24T16:28:39.114Z,3.20
2019-03-24T16:31:11.032Z,3.30
2019-03-24T16:33:42.914Z,3.12
2019-03-24T16:36:15.652Z,2.90
2019-03-24T16:38:49.030Z,3.00
2019-03-24T16:41:21.150Z,3.15
2019-03-24T16:43:52.975Z,3.40
2019-03-24T16:46:24.675Z,3.12
2019-03-24T16:48:56.450Z,3.55
2019-03-24T16:51:38.168Z,3.27
2019-03-24T16:54:01.667Z,3.55
2019-03-24T16:56:33.401Z,3.58
2019-03-24T16:59:05.194Z,3.95
2019-03-24T17:01:37.001Z,4.03
2019-03-24T17:04:08.841Z,3.67
2019-03-24T17:06:41.651Z,3.62
2019-03-24T17:09:13.392Z,4.15
2019-03-24T17:11:45.139Z,3.80
2019-03-24T17:14:16.872Z,3.40
2019-03-24T17:16:48.669Z,3.47
2019-03-24T17:19:20.414Z,3.83
2019-03-24T17:21:53.141Z,4.58
2019-03-24T17:24:24.885Z,3.40
2019-03-24T17:26:56.632Z,3.95
2019-03-24T17:29:28.450Z,4.50
2019-03-24T17:32:00.192Z,4.10
2019-03-24T17:34:32.110Z,3.80
2019-03-24T17:37:03.854Z,3.60
2019-03-24T17:39:35.596Z,3.73
2019-03-24T17:42:07.416Z,4.20
2019-03-24T17:44:39.170Z,4.15
2019-03-24T17:47:11.008Z,4.13
2019-03-24T17:49:42.794Z,4.15
2019-03-24T17:52:14.564Z,4.35
2019-03-24T17:54:46.296Z,4.50
2019-03-24T17:57:17.996Z,3.65
2019-03-24T17:59:49.738Z,4.10
2019-03-24T18:02:21.477Z,4.10
2019-03-24T18:04:53.323Z,4.12
2019-03-24T18:07:25.094Z,4.12
2019-03-24T18:09:56.940Z,4.10
2019-03-24T18:12:28.687Z,4.70
2019-03-24T18:15:00.502Z,4.53
2019-03-24T18:17:32.244Z,6.08
2019-03-24T18:20:03.992Z,4.80
2019-03-24T18:22:35.709Z,3.90
2019-03-24T18:25:09.069Z,4.03
2019-03-24T18:27:40.768Z,3.87
2019-03-24T18:30:12.905Z,4.10
2019-03-24T18:32:44.742Z,3.87
2019-03-24T18:35:16.502Z,4.97
2019-03-24T18:37:48.239Z,4.27
2019-03-24T18:40:20.745Z,5.35
2019-03-24T18:42:52.957Z,3.83
2019-03-24T18:45:26.156Z,4.47
2019-03-24T18:47:57.976Z,4.70
2019-03-24T18:50:29.998Z,5.40
2019-03-24T18:53:01.972Z,5.27
2019-03-24T18:55:33.963Z,5.57
2019-03-24T18:58:06.241Z,5.63
2019-03-24T19:00:38.149Z,5.37
2019-03-24T19:03:10.042Z,5.55
2019-03-24T19:05:43.499Z,5.87
2019-03-24T19:08:16.472Z,5.77
2019-03-24T19:10:48.567Z,5.73
2019-03-24T19:13:20.983Z,5.73
2019-03-24T19:15:52.725Z,6.03
2019-03-24T19:18:24.953Z,5.67
2019-03-24T19:20:56.780Z,5.93
2019-03-24T19:23:28.569Z,5.90
2019-03-24T19:26:00.350Z,5.80
2019-03-24T19:28:32.077Z,5.77
2019-03-24T19:31:06.185Z,5.63
2019-03-24T19:33:37.616Z,5.13
2019-03-24T19:36:09.746Z,5.77
2019-03-24T19:38:42.849Z,5.23
2019-03-24T19:41:14.650Z,5.57
2019-03-24T19:43:46.403Z,5.37
2019-03-24T19:46:18.164Z,4.97
2019-03-24T19:48:49.956Z,5.87
2019-03-24T19:51:22.016Z,5.20
2019-03-24T19:53:53.980Z,4.80
2019-03-24T19:56:25.758Z,5.07
2019-03-24T19:58:57.678Z,6.00
2019-03-24T20:01:29.482Z,4.50
2019-03-24T20:04:01.837Z,5.37
2019-03-24T20:06:34.893Z,5.53
2019-03-24T20:09:09.253Z,5.20
2019-03-24T20:11:41.127Z,5.17
2019-03-24T20:14:13.381Z,5.13
2019-03-24T20:16:45.450Z,5.50
2019-03-24T20:19:17.362Z,4.90
2019-03-24T20:21:49.328Z,5.80
2019-03-24T20:24:21.053Z,5.03
2019-03-24T20:26:52.780Z,5.30
2019-03-24T20:29:24.467Z,5.27
2019-03-24T20:31:56.182Z,4.83
2019-03-24T20:34:27.864Z,5.20
2019-03-24T20:36:59.617Z,6.10
2019-03-24T20:39:31.496Z,5.60
2019-03-24T20:42:03.395Z,6.57
2019-03-24T20:44:35.169Z,6.10
2019-03-24T20:47:07.023Z,6.67
2019-03-24T20:49:38.791Z,5.77
2019-03-24T20:52:10.536Z,5.63
2019-03-24T20:54:42.293Z,5.00
2019-03-24T20:57:14.056Z,5.90
2019-03-24T20:59:45.725Z,5.60
2019-03-24T21:02:17.591Z,5.23
2019-03-24T21:04:49.443Z,5.30
2019-03-24T21:07:23.910Z,4.83
2019-03-24T21:09:56.038Z,5.90
2019-03-24T21:12:28.161Z,5.80
2019-03-24T21:14:59.917Z,5.07
2019-03-24T21:17:31.899Z,5.00
2019-03-24T21:20:03.701Z,5.50
2019-03-24T21:22:35.430Z,5.70
2019-03-24T21:25:07.373Z,4.93
2019-03-24T21:27:40.402Z,5.33
2019-03-24T21:30:12.735Z,4.87
2019-03-24T21:32:44.850Z,5.40
2019-03-24T21:35:16.932Z,5.90
2019-03-24T21:37:48.699Z,5.73
2019-03-24T21:40:20.564Z,5.27
2019-03-24T21:42:52.429Z,5.10
2019-03-24T21:45:24.382Z,7.17
2019-03-24T21:47:56.274Z,5.27
2019-03-24T21:50:28.167Z,5.80
2019-03-24T21:53:00.040Z,4.83
2019-03-24T21:55:32.935Z,5.10
2019-03-24T21:58:05.915Z,5.17
2019-03-24T22:00:38.533Z,5.57
2019-03-24T22:03:10.386Z,5.20
2019-03-24T22:05:42.173Z,5.13
2019-03-24T22:08:13.864Z,5.37
2019-03-24T22:10:45.712Z,5.40
2019-03-24T22:13:17.552Z,5.00
2019-03-24T22:15:49.308Z,5.37
2019-03-24T22:18:21.114Z,4.97
2019-03-24T22:20:53.359Z,5.07
2019-03-24T22:23:25.025Z,5.80
2019-03-24T22:25:56.788Z,5.07
2019-03-24T22:28:28.525Z,5.10
2019-03-24T22:31:00.309Z,4.97
2019-03-24T22:33:32.286Z,5.00
2019-03-24T22:36:03.995Z,4.77
2019-03-24T22:38:35.768Z,4.93
2019-03-24T22:41:07.471Z,4.97
2019-03-24T22:43:39.168Z,5.00
2019-03-24T22:46:10.951Z,4.90
2019-03-24T22:48:42.723Z,4.63
2019-03-24T22:51:14.421Z,5.27
2019-03-24T22:53:46.132Z,5.10
2019-03-24T22:56:18.147Z,4.90
2019-03-24T22:58:49.968Z,5.90
2019-03-24T23:01:21.727Z,5.07
2019-03-24T23:03:53.535Z,5.30
2019-03-24T23:06:25.301Z,5.27
2019-03-24T23:08:57.029Z,4.93
2019-03-24T23:11:28.827Z,5.47
2019-03-24T23:14:00.570Z,5.63
2019-03-24T23:16:32.354Z,5.07
2019-03-24T23:19:04.159Z,5.00
2019-03-24T23:21:35.873Z,5.10
2019-03-24T23:24:15.401Z,4.80
2019-03-24T23:26:41.106Z,4.70
2019-03-24T23:29:12.779Z,5.00
2019-03-24T23:31:44.463Z,4.87
2019-03-24T23:34:16.228Z,4.53
2019-03-24T23:36:48.013Z,4.97
2019-03-24T23:39:19.765Z,4.83
2019-03-24T23:41:51.528Z,4.67
2019-03-24T23:44:23.439Z,5.30
2019-03-24T23:46:55.294Z,4.90
2019-03-24T23:49:27.039Z,5.40
2019-03-24T23:51:58.776Z,4.77
2019-03-24T23:54:31.479Z,5.63
2019-03-24T23:57:03.151Z,4.90
2019-03-24T23:59:34.851Z,5.37
